sensor_id;sensor_type;location;lat;lon;timestamp;P1;durP1;ratioP1;P2;durP2;ratioP2
10100;SDS011;5090;51.258;4.436;2022-12-07T00:00:53;19.63;;;10.17;;
10100;SDS011;5090;51.258;4.436;2022-12-07T00:03:21;14.70;;;9.83;;
10100;SDS011;5090;51.258;4.436;2022-12-07T00:05:49;16.40;;;10.33;;
10100;SDS011;5090;51.258;4.436;2022-12-07T00:08:18;17.40;;;9.93;;
10100;SDS011;5090;51.258;4.436;2022-12-07T00:10:46;22.30;;;10.53;;
10100;SDS011;5090;51.258;4.436;2022-12-07T00:13:14;13.67;;;9.60;;
10100;SDS011;5090;51.258;4.436;2022-12-07T00:15:42;20.73;;;10.60;;
10100;SDS011;5090;51.258;4.436;2022-12-07T00:18:10;18.23;;;10.73;;
10100;SDS011;5090;51.258;4.436;2022-12-07T00:20:39;17.40;;;10.03;;
10100;SDS011;5090;51.258;4.436;2022-12-07T00:23:07;20.20;;;11.40;;
10100;SDS011;5090;51.258;4.436;2022-12-07T00:25:35;16.90;;;10.07;;
10100;SDS011;5090;51.258;4.436;2022-12-07T00:28:03;21.03;;;10.33;;
10100;SDS011;5090;51.258;4.436;2022-12-07T00:30:32;16.50;;;9.50;;
10100;SDS011;5090;51.258;4.436;2022-12-07T00:33:00;16.50;;;9.67;;
10100;SDS011;5090;51.258;4.436;2022-12-07T00:35:28;16.33;;;10.10;;
10100;SDS011;5090;51.258;4.436;2022-12-07T00:37:56;18.77;;;11.37;;
10100;SDS011;5090;51.258;4.436;2022-12-07T00:40:25;14.53;;;10.73;;
10100;SDS011;5090;51.258;4.436;2022-12-07T00:42:53;14.83;;;9.80;;
10100;SDS011;5090;51.258;4.436;2022-12-07T00:45:21;20.17;;;10.30;;
10100;SDS011;5090;51.258;4.436;2022-12-07T00:47:49;15.13;;;10.50;;
10100;SDS011;5090;51.258;4.436;2022-12-07T00:50:18;14.33;;;9.50;;
10100;SDS011;5090;51.258;4.436;2022-12-07T00:52:46;16.90;;;9.93;;
10100;SDS011;5090;51.258;4.436;2022-12-07T00:55:14;16.27;;;9.40;;
10100;SDS011;5090;51.258;4.436;2022-12-07T00:57:43;15.70;;;9.63;;
10100;SDS011;5090;51.258;4.436;2022-12-07T01:00:11;14.23;;;9.23;;
10100;SDS011;5090;51.258;4.436;2022-12-07T01:02:39;25.03;;;10.57;;
10100;SDS011;5090;51.258;4.436;2022-12-07T01:05:08;25.17;;;10.30;;
10100;SDS011;5090;51.258;4.436;2022-12-07T01:07:36;22.90;;;10.30;;
10100;SDS011;5090;51.258;4.436;2022-12-07T01:10:04;16.13;;;9.50;;
10100;SDS011;5090;51.258;4.436;2022-12-07T01:12:33;21.63;;;10.00;;
10100;SDS011;5090;51.258;4.436;2022-12-07T01:15:01;20.50;;;10.63;;
10100;SDS011;5090;51.258;4.436;2022-12-07T01:17:29;20.77;;;10.57;;
10100;SDS011;5090;51.258;4.436;2022-12-07T01:19:58;20.87;;;10.10;;
10100;SDS011;5090;51.258;4.436;2022-12-07T01:22:26;22.43;;;11.03;;
10100;SDS011;5090;51.258;4.436;2022-12-07T01:24:54;15.67;;;9.70;;
10100;SDS011;5090;51.258;4.436;2022-12-07T01:27:22;16.07;;;9.60;;
10100;SDS011;5090;51.258;4.436;2022-12-07T01:29:51;20.37;;;9.50;;
10100;SDS011;5090;51.258;4.436;2022-12-07T01:32:19;20.23;;;9.87;;
10100;SDS011;5090;51.258;4.436;2022-12-07T01:34:48;18.03;;;9.33;;
10100;SDS011;5090;51.258;4.436;2022-12-07T01:37:16;14.93;;;9.27;;
10100;SDS011;5090;51.258;4.436;2022-12-07T01:39:44;14.90;;;9.20;;
10100;SDS011;5090;51.258;4.436;2022-12-07T01:42:12;20.47;;;9.00;;
10100;SDS011;5090;51.258;4.436;2022-12-07T01:47:14;15.00;;;9.23;;
10100;SDS011;5090;51.258;4.436;2022-12-07T01:49:44;14.70;;;9.00;;
10100;SDS011;5090;51.258;4.436;2022-12-07T01:52:15;17.47;;;8.87;;
10100;SDS011;5090;51.258;4.436;2022-12-07T01:54:43;14.80;;;7.97;;
10100;SDS011;5090;51.258;4.436;2022-12-07T01:57:11;15.00;;;8.40;;
10100;SDS011;5090;51.258;4.436;2022-12-07T01:59:39;15.37;;;9.13;;
10100;SDS011;5090;51.258;4.436;2022-12-07T02:02:08;13.17;;;8.80;;
10100;SDS011;5090;51.258;4.436;2022-12-07T02:04:36;16.87;;;8.97;;
10100;SDS011;5090;51.258;4.436;2022-12-07T02:07:04;23.07;;;9.87;;
10100;SDS011;5090;51.258;4.436;2022-12-07T02:09:32;13.90;;;9.17;;
10100;SDS011;5090;51.258;4.436;2022-12-07T02:12:00;19.73;;;10.20;;
10100;SDS011;5090;51.258;4.436;2022-12-07T02:14:28;20.63;;;9.53;;
10100;SDS011;5090;51.258;4.436;2022-12-07T02:17:01;19.87;;;10.53;;
10100;SDS011;5090;51.258;4.436;2022-12-07T02:22:18;20.03;;;10.17;;
10100;SDS011;5090;51.258;4.436;2022-12-07T02:24:48;24.80;;;11.23;;
10100;SDS011;5090;51.258;4.436;2022-12-07T02:27:22;23.10;;;10.37;;
10100;SDS011;5090;51.258;4.436;2022-12-07T02:29:47;17.93;;;11.10;;
10100;SDS011;5090;51.258;4.436;2022-12-07T02:32:16;25.53;;;11.00;;
10100;SDS011;5090;51.258;4.436;2022-12-07T02:34:50;17.83;;;11.87;;
10100;SDS011;5090;51.258;4.436;2022-12-07T02:37:21;34.70;;;11.53;;
10100;SDS011;5090;51.258;4.436;2022-12-07T02:39:48;26.30;;;11.67;;
10100;SDS011;5090;51.258;4.436;2022-12-07T02:42:16;26.83;;;11.60;;
10100;SDS011;5090;51.258;4.436;2022-12-07T02:44:43;19.13;;;11.17;;
10100;SDS011;5090;51.258;4.436;2022-12-07T02:47:12;21.87;;;11.63;;
10100;SDS011;5090;51.258;4.436;2022-12-07T02:49:39;22.57;;;11.47;;
10100;SDS011;5090;51.258;4.436;2022-12-07T02:52:08;22.60;;;11.23;;
10100;SDS011;5090;51.258;4.436;2022-12-07T02:54:36;20.17;;;10.50;;
10100;SDS011;5090;51.258;4.436;2022-12-07T02:57:12;14.93;;;11.37;;
10100;SDS011;5090;51.258;4.436;2022-12-07T03:00:08;22.67;;;10.23;;
10100;SDS011;5090;51.258;4.436;2022-12-07T03:05:39;36.00;;;10.37;;
10100;SDS011;5090;51.258;4.436;2022-12-07T03:07:51;28.10;;;10.07;;
10100;SDS011;5090;51.258;4.436;2022-12-07T03:10:24;20.73;;;9.43;;
10100;SDS011;5090;51.258;4.436;2022-12-07T03:12:55;19.23;;;9.93;;
10100;SDS011;5090;51.258;4.436;2022-12-07T03:15:23;24.60;;;9.47;;
10100;SDS011;5090;51.258;4.436;2022-12-07T03:17:49;14.53;;;8.97;;
10100;SDS011;5090;51.258;4.436;2022-12-07T03:20:18;18.90;;;9.40;;
10100;SDS011;5090;51.258;4.436;2022-12-07T03:22:46;15.33;;;8.27;;
10100;SDS011;5090;51.258;4.436;2022-12-07T03:25:15;14.67;;;8.53;;
10100;SDS011;5090;51.258;4.436;2022-12-07T03:27:44;16.90;;;8.67;;
10100;SDS011;5090;51.258;4.436;2022-12-07T03:30:13;11.90;;;7.87;;
10100;SDS011;5090;51.258;4.436;2022-12-07T03:32:44;20.47;;;8.83;;
10100;SDS011;5090;51.258;4.436;2022-12-07T03:35:14;16.73;;;7.93;;
10100;SDS011;5090;51.258;4.436;2022-12-07T03:37:43;16.17;;;8.97;;
10100;SDS011;5090;51.258;4.436;2022-12-07T03:40:15;18.00;;;9.93;;
10100;SDS011;5090;51.258;4.436;2022-12-07T03:42:41;18.17;;;8.53;;
10100;SDS011;5090;51.258;4.436;2022-12-07T03:45:10;19.03;;;9.30;;
10100;SDS011;5090;51.258;4.436;2022-12-07T03:47:47;17.37;;;8.13;;
10100;SDS011;5090;51.258;4.436;2022-12-07T03:52:59;16.70;;;8.37;;
10100;SDS011;5090;51.258;4.436;2022-12-07T03:55:29;14.90;;;8.40;;
10100;SDS011;5090;51.258;4.436;2022-12-07T03:57:59;15.17;;;8.40;;
10100;SDS011;5090;51.258;4.436;2022-12-07T04:00:26;18.20;;;8.13;;
10100;SDS011;5090;51.258;4.436;2022-12-07T04:02:54;14.83;;;7.70;;
10100;SDS011;5090;51.258;4.436;2022-12-07T04:05:23;13.70;;;7.20;;
10100;SDS011;5090;51.258;4.436;2022-12-07T04:07:51;14.47;;;7.80;;
10100;SDS011;5090;51.258;4.436;2022-12-07T04:10:19;11.47;;;7.27;;
10100;SDS011;5090;51.258;4.436;2022-12-07T04:12:47;22.17;;;7.83;;
10100;SDS011;5090;51.258;4.436;2022-12-07T04:15:15;15.33;;;7.13;;
10100;SDS011;5090;51.258;4.436;2022-12-07T04:17:44;15.60;;;6.93;;
10100;SDS011;5090;51.258;4.436;2022-12-07T04:20:12;14.93;;;6.47;;
10100;SDS011;5090;51.258;4.436;2022-12-07T04:22:40;12.00;;;6.03;;
10100;SDS011;5090;51.258;4.436;2022-12-07T04:25:09;18.87;;;6.30;;
10100;SDS011;5090;51.258;4.436;2022-12-07T04:27:37;11.20;;;6.37;;
10100;SDS011;5090;51.258;4.436;2022-12-07T04:30:05;8.83;;;4.23;;
10100;SDS011;5090;51.258;4.436;2022-12-07T04:32:34;11.20;;;4.47;;
10100;SDS011;5090;51.258;4.436;2022-12-07T04:35:02;9.73;;;3.80;;
10100;SDS011;5090;51.258;4.436;2022-12-07T04:37:30;11.33;;;3.53;;
10100;SDS011;5090;51.258;4.436;2022-12-07T04:39:58;7.93;;;4.27;;
10100;SDS011;5090;51.258;4.436;2022-12-07T04:42:26;8.07;;;2.93;;
10100;SDS011;5090;51.258;4.436;2022-12-07T04:44:55;9.63;;;3.03;;
10100;SDS011;5090;51.258;4.436;2022-12-07T04:47:23;9.97;;;2.97;;
10100;SDS011;5090;51.258;4.436;2022-12-07T04:49:51;7.97;;;3.00;;
10100;SDS011;5090;51.258;4.436;2022-12-07T04:52:19;8.53;;;3.47;;
10100;SDS011;5090;51.258;4.436;2022-12-07T04:54:47;14.17;;;6.47;;
10100;SDS011;5090;51.258;4.436;2022-12-07T04:57:16;10.27;;;3.30;;
10100;SDS011;5090;51.258;4.436;2022-12-07T04:59:44;21.00;;;13.30;;
10100;SDS011;5090;51.258;4.436;2022-12-07T05:02:12;23.17;;;11.07;;
10100;SDS011;5090;51.258;4.436;2022-12-07T05:04:40;17.00;;;6.27;;
10100;SDS011;5090;51.258;4.436;2022-12-07T05:07:08;7.17;;;4.10;;
10100;SDS011;5090;51.258;4.436;2022-12-07T05:09:37;10.97;;;3.90;;
10100;SDS011;5090;51.258;4.436;2022-12-07T05:12:05;10.00;;;4.07;;
10100;SDS011;5090;51.258;4.436;2022-12-07T05:14:33;9.07;;;4.60;;
10100;SDS011;5090;51.258;4.436;2022-12-07T05:17:01;10.63;;;4.43;;
10100;SDS011;5090;51.258;4.436;2022-12-07T05:19:29;11.60;;;3.23;;
10100;SDS011;5090;51.258;4.436;2022-12-07T05:21:58;8.70;;;3.10;;
10100;SDS011;5090;51.258;4.436;2022-12-07T05:24:27;8.87;;;3.00;;
10100;SDS011;5090;51.258;4.436;2022-12-07T05:26:55;12.93;;;3.33;;
10100;SDS011;5090;51.258;4.436;2022-12-07T05:29:23;10.10;;;3.40;;
10100;SDS011;5090;51.258;4.436;2022-12-07T05:31:51;9.80;;;3.77;;
10100;SDS011;5090;51.258;4.436;2022-12-07T05:34:19;9.53;;;3.90;;
10100;SDS011;5090;51.258;4.436;2022-12-07T05:36:48;9.00;;;3.73;;
10100;SDS011;5090;51.258;4.436;2022-12-07T05:39:16;8.33;;;3.00;;
10100;SDS011;5090;51.258;4.436;2022-12-07T05:41:44;14.97;;;3.87;;
10100;SDS011;5090;51.258;4.436;2022-12-07T05:44:18;6.50;;;2.73;;
10100;SDS011;5090;51.258;4.436;2022-12-07T05:46:46;7.67;;;3.23;;
10100;SDS011;5090;51.258;4.436;2022-12-07T05:49:14;6.87;;;3.30;;
10100;SDS011;5090;51.258;4.436;2022-12-07T05:51:43;14.90;;;3.97;;
10100;SDS011;5090;51.258;4.436;2022-12-07T05:54:11;9.80;;;3.77;;
10100;SDS011;5090;51.258;4.436;2022-12-07T05:56:39;10.67;;;4.10;;
10100;SDS011;5090;51.258;4.436;2022-12-07T05:59:08;7.87;;;3.90;;
10100;SDS011;5090;51.258;4.436;2022-12-07T06:01:41;8.43;;;3.80;;
10100;SDS011;5090;51.258;4.436;2022-12-07T06:04:09;13.83;;;3.50;;
10100;SDS011;5090;51.258;4.436;2022-12-07T06:06:38;13.13;;;4.00;;
10100;SDS011;5090;51.258;4.436;2022-12-07T06:09:06;15.70;;;4.83;;
10100;SDS011;5090;51.258;4.436;2022-12-07T06:11:34;11.37;;;4.80;;
10100;SDS011;5090;51.258;4.436;2022-12-07T06:14:08;17.97;;;4.93;;
10100;SDS011;5090;51.258;4.436;2022-12-07T06:16:36;14.43;;;5.10;;
10100;SDS011;5090;51.258;4.436;2022-12-07T06:19:05;11.40;;;5.17;;
10100;SDS011;5090;51.258;4.436;2022-12-07T06:21:33;9.23;;;3.90;;
10100;SDS011;5090;51.258;4.436;2022-12-07T06:24:01;12.37;;;4.13;;
10100;SDS011;5090;51.258;4.436;2022-12-07T06:26:29;12.63;;;4.10;;
10100;SDS011;5090;51.258;4.436;2022-12-07T06:28:57;16.00;;;3.83;;
10100;SDS011;5090;51.258;4.436;2022-12-07T06:31:26;7.17;;;3.73;;
10100;SDS011;5090;51.258;4.436;2022-12-07T06:33:58;12.93;;;4.03;;
10100;SDS011;5090;51.258;4.436;2022-12-07T06:36:25;8.77;;;3.73;;
10100;SDS011;5090;51.258;4.436;2022-12-07T06:38:53;12.17;;;3.40;;
10100;SDS011;5090;51.258;4.436;2022-12-07T06:41:22;8.67;;;3.17;;
10100;SDS011;5090;51.258;4.436;2022-12-07T06:43:50;14.30;;;3.93;;
10100;SDS011;5090;51.258;4.436;2022-12-07T06:46:18;8.83;;;3.07;;
10100;SDS011;5090;51.258;4.436;2022-12-07T06:48:46;6.70;;;3.20;;
10100;SDS011;5090;51.258;4.436;2022-12-07T06:51:14;8.87;;;3.53;;
10100;SDS011;5090;51.258;4.436;2022-12-07T06:53:42;7.80;;;3.53;;
10100;SDS011;5090;51.258;4.436;2022-12-07T06:56:11;10.17;;;3.80;;
10100;SDS011;5090;51.258;4.436;2022-12-07T06:58:39;10.53;;;4.17;;
10100;SDS011;5090;51.258;4.436;2022-12-07T07:01:10;12.53;;;4.23;;
10100;SDS011;5090;51.258;4.436;2022-12-07T07:03:37;6.80;;;3.40;;
10100;SDS011;5090;51.258;4.436;2022-12-07T07:06:05;17.13;;;4.90;;
10100;SDS011;5090;51.258;4.436;2022-12-07T07:08:34;11.57;;;4.10;;
10100;SDS011;5090;51.258;4.436;2022-12-07T07:11:02;15.53;;;4.67;;
10100;SDS011;5090;51.258;4.436;2022-12-07T07:13:31;15.63;;;4.27;;
10100;SDS011;5090;51.258;4.436;2022-12-07T07:16:00;18.13;;;4.67;;
10100;SDS011;5090;51.258;4.436;2022-12-07T07:18:28;13.07;;;5.10;;
10100;SDS011;5090;51.258;4.436;2022-12-07T07:20:56;20.13;;;4.57;;
10100;SDS011;5090;51.258;4.436;2022-12-07T07:23:24;14.87;;;4.97;;
10100;SDS011;5090;51.258;4.436;2022-12-07T07:25:52;12.83;;;4.70;;
10100;SDS011;5090;51.258;4.436;2022-12-07T07:28:21;15.77;;;4.67;;
10100;SDS011;5090;51.258;4.436;2022-12-07T07:30:49;22.40;;;5.43;;
10100;SDS011;5090;51.258;4.436;2022-12-07T07:33:17;19.63;;;4.70;;
10100;SDS011;5090;51.258;4.436;2022-12-07T07:35:45;13.63;;;5.17;;
10100;SDS011;5090;51.258;4.436;2022-12-07T07:38:14;12.77;;;5.83;;
10100;SDS011;5090;51.258;4.436;2022-12-07T07:40:42;12.87;;;5.83;;
10100;SDS011;5090;51.258;4.436;2022-12-07T07:43:10;18.27;;;5.30;;
10100;SDS011;5090;51.258;4.436;2022-12-07T07:45:38;13.33;;;5.70;;
10100;SDS011;5090;51.258;4.436;2022-12-07T07:48:06;15.50;;;6.70;;
10100;SDS011;5090;51.258;4.436;2022-12-07T07:50:34;16.93;;;7.17;;
10100;SDS011;5090;51.258;4.436;2022-12-07T07:53:03;19.77;;;8.73;;
10100;SDS011;5090;51.258;4.436;2022-12-07T07:55:31;16.00;;;7.47;;
10100;SDS011;5090;51.258;4.436;2022-12-07T07:57:59;19.90;;;7.77;;
10100;SDS011;5090;51.258;4.436;2022-12-07T08:00:27;17.87;;;7.47;;
10100;SDS011;5090;51.258;4.436;2022-12-07T08:02:55;27.33;;;8.73;;
10100;SDS011;5090;51.258;4.436;2022-12-07T08:05:24;18.83;;;8.67;;
10100;SDS011;5090;51.258;4.436;2022-12-07T08:07:52;17.90;;;8.80;;
10100;SDS011;5090;51.258;4.436;2022-12-07T08:10:20;18.63;;;8.40;;
10100;SDS011;5090;51.258;4.436;2022-12-07T08:12:48;25.47;;;8.90;;
10100;SDS011;5090;51.258;4.436;2022-12-07T08:15:22;24.90;;;8.67;;
10100;SDS011;5090;51.258;4.436;2022-12-07T08:17:51;18.90;;;8.33;;
10100;SDS011;5090;51.258;4.436;2022-12-07T08:20:20;27.70;;;8.40;;
10100;SDS011;5090;51.258;4.436;2022-12-07T08:22:48;37.37;;;8.20;;
10100;SDS011;5090;51.258;4.436;2022-12-07T08:25:16;21.37;;;8.93;;
10100;SDS011;5090;51.258;4.436;2022-12-07T08:27:44;14.57;;;7.73;;
10100;SDS011;5090;51.258;4.436;2022-12-07T08:30:13;18.30;;;7.67;;
10100;SDS011;5090;51.258;4.436;2022-12-07T08:32:41;24.57;;;7.90;;
10100;SDS011;5090;51.258;4.436;2022-12-07T08:35:11;13.67;;;7.57;;
10100;SDS011;5090;51.258;4.436;2022-12-07T08:37:39;18.37;;;7.70;;
10100;SDS011;5090;51.258;4.436;2022-12-07T08:40:07;15.73;;;8.43;;
10100;SDS011;5090;51.258;4.436;2022-12-07T08:42:35;21.57;;;7.93;;
10100;SDS011;5090;51.258;4.436;2022-12-07T08:45:07;13.73;;;7.80;;
10100;SDS011;5090;51.258;4.436;2022-12-07T08:47:36;21.87;;;7.20;;
10100;SDS011;5090;51.258;4.436;2022-12-07T08:50:04;16.40;;;6.67;;
10100;SDS011;5090;51.258;4.436;2022-12-07T08:52:33;17.73;;;6.60;;
10100;SDS011;5090;51.258;4.436;2022-12-07T08:55:01;18.23;;;6.10;;
10100;SDS011;5090;51.258;4.436;2022-12-07T08:57:29;17.90;;;7.03;;
10100;SDS011;5090;51.258;4.436;2022-12-07T08:59:58;17.33;;;6.87;;
10100;SDS011;5090;51.258;4.436;2022-12-07T09:02:26;17.50;;;7.17;;
10100;SDS011;5090;51.258;4.436;2022-12-07T09:04:58;14.70;;;6.23;;
10100;SDS011;5090;51.258;4.436;2022-12-07T09:07:26;26.33;;;7.67;;
10100;SDS011;5090;51.258;4.436;2022-12-07T09:09:54;16.17;;;6.40;;
10100;SDS011;5090;51.258;4.436;2022-12-07T09:12:23;15.13;;;5.37;;
10100;SDS011;5090;51.258;4.436;2022-12-07T09:14:51;7.37;;;4.63;;
10100;SDS011;5090;51.258;4.436;2022-12-07T09:17:19;23.27;;;5.90;;
10100;SDS011;5090;51.258;4.436;2022-12-07T09:19:47;13.40;;;4.80;;
10100;SDS011;5090;51.258;4.436;2022-12-07T09:22:15;19.87;;;5.63;;
10100;SDS011;5090;51.258;4.436;2022-12-07T09:24:44;9.33;;;5.23;;
10100;SDS011;5090;51.258;4.436;2022-12-07T09:27:12;15.57;;;5.63;;
10100;SDS011;5090;51.258;4.436;2022-12-07T09:29:40;13.20;;;4.90;;
10100;SDS011;5090;51.258;4.436;2022-12-07T09:32:08;7.70;;;4.30;;
10100;SDS011;5090;51.258;4.436;2022-12-07T09:34:37;12.90;;;4.37;;
10100;SDS011;5090;51.258;4.436;2022-12-07T09:37:05;11.53;;;4.40;;
10100;SDS011;5090;51.258;4.436;2022-12-07T09:39:33;12.10;;;4.10;;
10100;SDS011;5090;51.258;4.436;2022-12-07T09:42:02;10.57;;;4.13;;
10100;SDS011;5090;51.258;4.436;2022-12-07T09:44:30;9.40;;;4.10;;
10100;SDS011;5090;51.258;4.436;2022-12-07T09:46:58;10.53;;;4.30;;
10100;SDS011;5090;51.258;4.436;2022-12-07T09:49:28;11.60;;;4.60;;
10100;SDS011;5090;51.258;4.436;2022-12-07T09:52:31;10.57;;;3.80;;
10100;SDS011;5090;51.258;4.436;2022-12-07T09:54:43;9.20;;;3.27;;
10100;SDS011;5090;51.258;4.436;2022-12-07T09:57:11;8.63;;;3.07;;
10100;SDS011;5090;51.258;4.436;2022-12-07T09:59:39;16.73;;;3.30;;
10100;SDS011;5090;51.258;4.436;2022-12-07T10:02:20;11.93;;;3.07;;
10100;SDS011;5090;51.258;4.436;2022-12-07T10:04:44;11.43;;;3.70;;
10100;SDS011;5090;51.258;4.436;2022-12-07T10:07:12;6.53;;;3.57;;
10100;SDS011;5090;51.258;4.436;2022-12-07T10:09:41;8.47;;;3.80;;
10100;SDS011;5090;51.258;4.436;2022-12-07T10:12:10;8.83;;;2.80;;
10100;SDS011;5090;51.258;4.436;2022-12-07T10:14:38;8.00;;;2.67;;
10100;SDS011;5090;51.258;4.436;2022-12-07T10:17:28;5.97;;;3.97;;
10100;SDS011;5090;51.258;4.436;2022-12-07T10:20:08;13.60;;;4.27;;
10100;SDS011;5090;51.258;4.436;2022-12-07T10:22:25;7.07;;;3.27;;
10100;SDS011;5090;51.258;4.436;2022-12-07T10:24:53;10.07;;;2.80;;
10100;SDS011;5090;51.258;4.436;2022-12-07T10:27:26;9.17;;;3.20;;
10100;SDS011;5090;51.258;4.436;2022-12-07T10:29:50;9.47;;;3.33;;
10100;SDS011;5090;51.258;4.436;2022-12-07T10:32:26;9.63;;;3.27;;
10100;SDS011;5090;51.258;4.436;2022-12-07T10:34:49;10.50;;;2.90;;
10100;SDS011;5090;51.258;4.436;2022-12-07T10:37:18;8.63;;;3.03;;
10100;SDS011;5090;51.258;4.436;2022-12-07T10:39:49;9.30;;;2.90;;
10100;SDS011;5090;51.258;4.436;2022-12-07T10:42:20;6.37;;;2.53;;
10100;SDS011;5090;51.258;4.436;2022-12-07T10:44:48;6.87;;;2.40;;
10100;SDS011;5090;51.258;4.436;2022-12-07T10:47:24;7.00;;;3.17;;
10100;SDS011;5090;51.258;4.436;2022-12-07T10:49:55;8.77;;;3.33;;
10100;SDS011;5090;51.258;4.436;2022-12-07T10:52:26;11.17;;;3.80;;
10100;SDS011;5090;51.258;4.436;2022-12-07T10:55:01;7.63;;;3.80;;
10100;SDS011;5090;51.258;4.436;2022-12-07T10:57:26;10.80;;;3.93;;
10100;SDS011;5090;51.258;4.436;2022-12-07T10:59:58;15.40;;;4.60;;
10100;SDS011;5090;51.258;4.436;2022-12-07T11:05:05;9.90;;;4.50;;
10100;SDS011;5090;51.258;4.436;2022-12-07T11:07:43;14.40;;;4.73;;
10100;SDS011;5090;51.258;4.436;2022-12-07T11:12:53;10.67;;;4.00;;
10100;SDS011;5090;51.258;4.436;2022-12-07T11:15:21;8.43;;;3.93;;
10100;SDS011;5090;51.258;4.436;2022-12-07T11:17:48;11.53;;;4.30;;
10100;SDS011;5090;51.258;4.436;2022-12-07T11:26:32;11.50;;;4.20;;
10100;SDS011;5090;51.258;4.436;2022-12-07T11:31:18;11.53;;;3.67;;
10100;SDS011;5090;51.258;4.436;2022-12-07T11:33:46;14.93;;;4.07;;
10100;SDS011;5090;51.258;4.436;2022-12-07T11:36:17;13.90;;;3.70;;
10100;SDS011;5090;51.258;4.436;2022-12-07T11:38:44;11.70;;;3.70;;
10100;SDS011;5090;51.258;4.436;2022-12-07T11:41:11;10.30;;;3.90;;
10100;SDS011;5090;51.258;4.436;2022-12-07T11:43:48;6.83;;;4.10;;
10100;SDS011;5090;51.258;4.436;2022-12-07T11:46:12;11.50;;;4.67;;
10100;SDS011;5090;51.258;4.436;2022-12-07T11:48:43;14.57;;;4.27;;
10100;SDS011;5090;51.258;4.436;2022-12-07T11:51:10;9.57;;;4.20;;
10100;SDS011;5090;51.258;4.436;2022-12-07T11:53:42;14.83;;;4.57;;
10100;SDS011;5090;51.258;4.436;2022-12-07T11:56:11;7.37;;;4.00;;
10100;SDS011;5090;51.258;4.436;2022-12-07T11:58:42;18.57;;;4.77;;
10100;SDS011;5090;51.258;4.436;2022-12-07T12:02:14;11.87;;;3.77;;
10100;SDS011;5090;51.258;4.436;2022-12-07T12:04:07;6.10;;;2.87;;
10100;SDS011;5090;51.258;4.436;2022-12-07T12:06:34;8.07;;;2.97;;
10100;SDS011;5090;51.258;4.436;2022-12-07T12:09:09;8.97;;;3.43;;
10100;SDS011;5090;51.258;4.436;2022-12-07T12:11:39;11.37;;;4.63;;
10100;SDS011;5090;51.258;4.436;2022-12-07T12:14:08;18.63;;;9.17;;
10100;SDS011;5090;51.258;4.436;2022-12-07T12:16:43;18.80;;;9.13;;
10100;SDS011;5090;51.258;4.436;2022-12-07T12:19:17;16.53;;;10.07;;
10100;SDS011;5090;51.258;4.436;2022-12-07T12:21:42;7.87;;;5.50;;
10100;SDS011;5090;51.258;4.436;2022-12-07T12:24:18;7.90;;;3.73;;
10100;SDS011;5090;51.258;4.436;2022-12-07T12:26:49;4.03;;;1.90;;
10100;SDS011;5090;51.258;4.436;2022-12-07T12:34:30;7.97;;;1.63;;
10100;SDS011;5090;51.258;4.436;2022-12-07T12:36:57;7.40;;;1.60;;
10100;SDS011;5090;51.258;4.436;2022-12-07T12:39:25;4.57;;;1.70;;
10100;SDS011;5090;51.258;4.436;2022-12-07T12:41:54;3.90;;;1.90;;
10100;SDS011;5090;51.258;4.436;2022-12-07T12:44:38;7.60;;;2.57;;
10100;SDS011;5090;51.258;4.436;2022-12-07T12:49:41;5.67;;;2.57;;
10100;SDS011;5090;51.258;4.436;2022-12-07T12:53:15;9.93;;;2.60;;
10100;SDS011;5090;51.258;4.436;2022-12-07T12:54:58;6.73;;;3.00;;
10100;SDS011;5090;51.258;4.436;2022-12-07T12:57:27;5.33;;;2.60;;
10100;SDS011;5090;51.258;4.436;2022-12-07T12:59:57;3.43;;;2.70;;
10100;SDS011;5090;51.258;4.436;2022-12-07T13:02:25;6.60;;;2.17;;
10100;SDS011;5090;51.258;4.436;2022-12-07T13:04:55;4.87;;;2.53;;
10100;SDS011;5090;51.258;4.436;2022-12-07T13:09:55;9.53;;;2.60;;
10100;SDS011;5090;51.258;4.436;2022-12-07T13:12:24;5.70;;;2.30;;
10100;SDS011;5090;51.258;4.436;2022-12-07T13:14:53;7.10;;;2.10;;
10100;SDS011;5090;51.258;4.436;2022-12-07T13:19:55;3.73;;;1.47;;
10100;SDS011;5090;51.258;4.436;2022-12-07T13:22:36;4.00;;;1.40;;
10100;SDS011;5090;51.258;4.436;2022-12-07T13:25:07;5.60;;;1.90;;
10100;SDS011;5090;51.258;4.436;2022-12-07T13:27:34;5.47;;;1.10;;
10100;SDS011;5090;51.258;4.436;2022-12-07T13:30:02;2.87;;;1.10;;
10100;SDS011;5090;51.258;4.436;2022-12-07T13:32:30;2.67;;;0.80;;
10100;SDS011;5090;51.258;4.436;2022-12-07T13:34:58;4.63;;;1.80;;
10100;SDS011;5090;51.258;4.436;2022-12-07T13:37:27;1.90;;;1.20;;
10100;SDS011;5090;51.258;4.436;2022-12-07T13:39:56;3.90;;;1.60;;
10100;SDS011;5090;51.258;4.436;2022-12-07T13:42:29;2.67;;;0.60;;
10100;SDS011;5090;51.258;4.436;2022-12-07T13:44:57;2.97;;;1.13;;
10100;SDS011;5090;51.258;4.436;2022-12-07T13:47:31;2.80;;;1.17;;
10100;SDS011;5090;51.258;4.436;2022-12-07T13:49:55;2.13;;;0.70;;
10100;SDS011;5090;51.258;4.436;2022-12-07T13:52:24;4.83;;;1.00;;
10100;SDS011;5090;51.258;4.436;2022-12-07T13:57:27;6.57;;;1.00;;
10100;SDS011;5090;51.258;4.436;2022-12-07T13:59:54;7.00;;;1.03;;
10100;SDS011;5090;51.258;4.436;2022-12-07T14:02:27;3.07;;;0.70;;
10100;SDS011;5090;51.258;4.436;2022-12-07T14:07:28;2.20;;;0.80;;
10100;SDS011;5090;51.258;4.436;2022-12-07T14:10:04;6.97;;;1.07;;
10100;SDS011;5090;51.258;4.436;2022-12-07T14:12:36;6.33;;;1.00;;
10100;SDS011;5090;51.258;4.436;2022-12-07T14:15:02;2.17;;;0.83;;
10100;SDS011;5090;51.258;4.436;2022-12-07T14:17:30;4.03;;;0.83;;
10100;SDS011;5090;51.258;4.436;2022-12-07T14:19:59;4.83;;;1.13;;
10100;SDS011;5090;51.258;4.436;2022-12-07T14:22:28;1.93;;;1.13;;
10100;SDS011;5090;51.258;4.436;2022-12-07T14:25:00;3.70;;;0.80;;
10100;SDS011;5090;51.258;4.436;2022-12-07T14:27:30;1.77;;;0.73;;
10100;SDS011;5090;51.258;4.436;2022-12-07T14:29:56;4.67;;;1.27;;
10100;SDS011;5090;51.258;4.436;2022-12-07T14:32:25;6.57;;;1.57;;
10100;SDS011;5090;51.258;4.436;2022-12-07T14:34:53;6.53;;;1.30;;
10100;SDS011;5090;51.258;4.436;2022-12-07T14:37:20;3.20;;;1.33;;
10100;SDS011;5090;51.258;4.436;2022-12-07T14:39:48;2.43;;;0.70;;
10100;SDS011;5090;51.258;4.436;2022-12-07T14:42:17;3.17;;;1.00;;
10100;SDS011;5090;51.258;4.436;2022-12-07T14:44:45;1.77;;;0.80;;
10100;SDS011;5090;51.258;4.436;2022-12-07T14:47:13;1.90;;;0.70;;
10100;SDS011;5090;51.258;4.436;2022-12-07T14:49:41;2.20;;;0.80;;
10100;SDS011;5090;51.258;4.436;2022-12-07T14:52:27;5.27;;;0.90;;
10100;SDS011;5090;51.258;4.436;2022-12-07T14:54:55;5.07;;;1.23;;
10100;SDS011;5090;51.258;4.436;2022-12-07T14:57:23;3.97;;;0.90;;
10100;SDS011;5090;51.258;4.436;2022-12-07T14:59:51;4.50;;;0.87;;
10100;SDS011;5090;51.258;4.436;2022-12-07T15:02:20;3.97;;;1.20;;
10100;SDS011;5090;51.258;4.436;2022-12-07T15:04:48;5.67;;;1.27;;
10100;SDS011;5090;51.258;4.436;2022-12-07T15:07:19;2.23;;;0.87;;
10100;SDS011;5090;51.258;4.436;2022-12-07T15:09:47;3.17;;;1.03;;
10100;SDS011;5090;51.258;4.436;2022-12-07T15:12:14;7.43;;;1.23;;
10100;SDS011;5090;51.258;4.436;2022-12-07T15:14:42;12.57;;;1.47;;
10100;SDS011;5090;51.258;4.436;2022-12-07T15:17:11;1.50;;;0.93;;
10100;SDS011;5090;51.258;4.436;2022-12-07T15:19:39;8.87;;;1.50;;
10100;SDS011;5090;51.258;4.436;2022-12-07T15:22:07;11.27;;;1.90;;
10100;SDS011;5090;51.258;4.436;2022-12-07T15:24:36;4.93;;;1.80;;
10100;SDS011;5090;51.258;4.436;2022-12-07T15:27:04;7.00;;;1.80;;
10100;SDS011;5090;51.258;4.436;2022-12-07T15:29:32;7.20;;;2.20;;
10100;SDS011;5090;51.258;4.436;2022-12-07T15:32:00;9.07;;;2.43;;
10100;SDS011;5090;51.258;4.436;2022-12-07T15:34:32;4.47;;;2.17;;
10100;SDS011;5090;51.258;4.436;2022-12-07T15:37:01;5.03;;;1.67;;
10100;SDS011;5090;51.258;4.436;2022-12-07T15:39:31;7.97;;;1.47;;
10100;SDS011;5090;51.258;4.436;2022-12-07T15:41:59;4.67;;;1.50;;
10100;SDS011;5090;51.258;4.436;2022-12-07T15:44:29;1.97;;;1.13;;